Bodensee (Kressbronn): 10,0°C  -  Teich der Wetterzentrale Bad Schussenried: 5,6°C |  Schneehöhe Kreuzthal-Steinberg (930 m ü. NN): 2 cm   
14.11.2019Höhe
ü. NN
ZeitTemperatur (°C)Nieder-
schlag
Luft-
feuchte
Luft-
druck
Wind
StationaktuellMinimumMaximumaktuellMaximum
Aldingen654 m00:010,10,1 (02:23)0,1 (13:03)0,0 l/m²91%1006,80,0 km/h (0 Bft) S-SO22,2 km/h (4 Bft) S-SO (13:14)
Allmannsweiler625 m00:000,20,2 (00:00)0,2 (00:00)0,0 l/m²91%1005,70,0 km/h (0 Bft) SW0,0 km/h (0 Bft) SW (00:00)
Allmendingen541 m00:00-1,0-1,0 (00:00)-1,0 (14:30)0,0 l/m²90%1006,11,6 km/h (1 Bft) O27,4 km/h (4 Bft) SW (15:30)
Amstetten-Reutti663 m00:00-0,8-0,8 (00:00)-0,8 (14:25)0,0 l/m²91%1005,86,4 km/h (2 Bft) O22,5 km/h (4 Bft) W-SW (13:55)
Amtzell-Grenis677 m00:00-0,1-0,1 (00:00)-0,1 (00:00)0,0 l/m²76%1007,64,8 km/h (1 Bft) SW4,8 km/h (1 Bft) SW (00:00)
Bad Krozingen233 m00:004,64,6 (07:25)4,6 (14:35)0,0 l/m²81%1006,23,3 km/h (1 Bft) SO29,7 km/h (5 Bft) SW (12:35)
Bad Saulgau595 m00:000,50,5 (07:15)0,5 (11:35)0,0 l/m²88%1005,06,4 km/h (2 Bft) NW22,5 km/h (4 Bft) NO (12:20)
Bad Saulgau-Lampertsweiler627 m00:000,40,4 (00:00)0,4 (00:00)0,0 l/m²84%1008,60,0 km/h (0 Bft) SO0,0 km/h (0 Bft) SO (00:00)
Bad Schussenried572 m00:000,81,0 (00:00)1,0 (00:00)0,0 l/m²85%1004,60,0 km/h (0 Bft) W-SW0,0 km/h (0 Bft) W-SW (00:00)
Bergatreute615 m00:001,61,6 (00:00)1,6 (00:00)0,0 l/m²91%1006,00,0 km/h (0 Bft) SO0,0 km/h (0 Bft) SO (00:00)
Biberach (Riss), Boehringer533 m00:000,60,6 (00:00)0,7 (00:00)0,0 l/m²92%1006,82,9 km/h (1 Bft) SW8,3 km/h (2 Bft) W-SW (00:00)
Biberach (Riss), Realschule553 m00:000,80,9 (00:00)0,9 (00:00)0,0 l/m²88%1007,13,2 km/h (1 Bft) S-SO3,2 km/h (1 Bft) S-SO (00:00)
Burgrieden523 m00:000,10,1 (00:00)0,1 (00:00)0,0 l/m²85%1006,10,0 km/h (0 Bft) S0,0 km/h (0 Bft) S (00:00)
Ebersbach579 m00:000,70,7 (00:00)0,7 (00:00)0,0 l/m²89%1007,00,0 km/h (0 Bft) SO0,0 km/h (0 Bft) SO (00:00)
Ebersbach-Boos605 m00:000,80,9 (00:00)0,9 (00:00)0,0 l/m²88%1006,70,0 km/h (0 Bft) SO0,0 km/h (0 Bft) SW (00:00)
Ebersbach-Menzenweiler661 m00:002,02,0 (00:00)2,0 (00:00)0,0 l/m²84%1006,711,3 km/h (2 Bft) O-SO11,3 km/h (2 Bft) O-SO (00:00)
Erlenmoos645 m00:001,41,6 (00:00)1,6 (00:00)0,0 l/m²89%1006,49,7 km/h (2 Bft) S-SO9,7 km/h (2 Bft) S-SO (00:00)
Ertingen569 m00:000,40,4 (00:00)0,4 (00:00)0,0 l/m²89%1006,10,0 km/h (0 Bft) S-SO0,0 km/h (0 Bft) S-SO (00:00)
Günzburg443 m00:000,80,8 (00:00)0,8 (00:00)0,0 l/m²88%1003,90,0 km/h (0 Bft) SW0,0 km/h (0 Bft) SW (00:00)
Hochdorf-Appendorf537 m00:00-1,9-1,8 (00:00)-1,8 (00:00)0,0 l/m²78%1014,23,2 km/h (1 Bft) W3,2 km/h (1 Bft) W (00:00)
Höchsten802 m00:000,80,8 (00:00)0,8 (00:00)0,0 l/m²88%1004,26,4 km/h (2 Bft) S-SW6,4 km/h (2 Bft) S-SW (00:00)
Horgenzell618 m00:001,21,3 (00:00)1,3 (00:00)0,0 l/m²87%1004,86,4 km/h (2 Bft) O6,4 km/h (2 Bft) SO (00:00)
Hoßkirch632 m00:00-0,20,1 (00:00)0,1 (00:00)0,0 l/m²88%1005,29,7 km/h (2 Bft) O9,7 km/h (2 Bft) O-SO (00:00)
Isny, Am Dreifingerbach695 m00:00-1,1-1,0 (00:00)-1,0 (00:00)0,0 l/m²93%1005,94,8 km/h (1 Bft) O-SO4,8 km/h (1 Bft) O-SO (00:00)
Isny, Weidachweg706 m00:00-0,7-0,6 (00:00)-0,6 (00:00)0,0 l/m²88%1007,98,0 km/h (2 Bft) O-SO8,0 km/h (2 Bft) SO (00:00)
Kirchberg an der Iller584 m00:00-0,1-0,1 (23:45)-0,1 (13:45)0,0 l/m²87%997,80,0 km/h (0 Bft) O-NO17,9 km/h (3 Bft) O-SO (13:30)
Kißlegg-Staibshof709 m00:000,30,3 (00:00)0,3 (00:00)0,0 l/m²93%1006,50,0 km/h (0 Bft) S-SW0,0 km/h (0 Bft) SW (00:00)
Kressbronn398 m00:002,92,9 (00:00)2,9 (00:00)0,0 l/m²83%1005,19,7 km/h (2 Bft) O9,7 km/h (2 Bft) O (00:00)
Kreuzthal-Steinberg-Alpe930 m00:00-0,4-0,4 (00:00)-0,4 (00:00)0,0 l/m²100%1010,04,3 km/h (1 Bft) SO6,8 km/h (2 Bft) S (00:00)
Kristberg im Montafon (AT)1425 m00:00-3,7-3,7 (00:00)-3,7 (00:00)0,0 l/m²77%1007,61,6 km/h (1 Bft) NO1,6 km/h (1 Bft) NO (00:00)
Laupheim500 m00:00-0,4-0,3 (00:00)-0,3 (00:00)0,0 l/m²90%1005,61,6 km/h (1 Bft) S-SW1,6 km/h (1 Bft) S-SW (00:00)
Leutkirch-Heggelbach670 m00:00-1,2-1,2 (00:00)-1,2 (00:00)0,0 l/m²90%1005,60,0 km/h (0 Bft) SW0,0 km/h (0 Bft) S-SW (00:00)
Lindau-Insel420 m00:004,84,8 (06:30)4,8 (15:15)0,0 l/m²77%1005,40,0 km/h (0 Bft) S-SO19,3 km/h (3 Bft) S (22:25)
Lindau-Stadt412 m00:003,43,4 (07:35)3,4 (12:10)0,0 l/m²82%1005,73,2 km/h (1 Bft) SO16,1 km/h (3 Bft) W (10:10)
Maselheim543 m00:000,00,0 (07:25)0,0 (13:45)0,0 l/m²89%1006,43,2 km/h (1 Bft) S-SO27,4 km/h (4 Bft) W-SW (13:35)
Maselheim-Sulmingen548 m00:000,20,2 (07:35)0,2 (14:10)0,0 l/m²89%1007,64,8 km/h (1 Bft) SW30,6 km/h (5 Bft) SW (13:15)
Mietingen-Baltringen528 m00:000,60,8 (00:00)0,8 (00:00)0,0 l/m²85%1007,90,0 km/h (0 Bft) S-SW0,0 km/h (0 Bft) S-SW (00:00)
Mindelheim-Apfeltrach620 m00:01-1,2-1,2 (00:01)-1,1 (00:00)0,0 l/m²90%1008,06,4 km/h (2 Bft) S-SO6,4 km/h (2 Bft) S-SO (00:00)
Mittelbiberach577 m00:001,31,3 (06:55)1,3 (13:35)0,0 l/m²85%1007,84,8 km/h (1 Bft) S24,1 km/h (4 Bft) SW (13:15)
Neukirch570 m00:000,70,7 (06:50)0,7 (14:30)0,0 l/m²88%1006,24,8 km/h (1 Bft) N-NO29,0 km/h (5 Bft) SW (13:50)
Ochsenhausen, Unt. Wiesen575 m00:000,60,7 (00:00)0,7 (00:00)0,0 l/m²87%1007,96,4 km/h (2 Bft) S6,4 km/h (2 Bft) S-SO (00:00)
Ostrach619 m00:000,50,6 (00:00)0,6 (00:00)0,0 l/m²90%1004,73,2 km/h (1 Bft) S3,2 km/h (1 Bft) S (00:00)
Ravensburg, Goethestraße428 m00:101,11,0 (00:00)1,1 (00:05)0,0 l/m²91%1005,76,4 km/h (2 Bft) N-NW6,4 km/h (2 Bft) N-NW (00:05)
Ravensburg, Springerstraße441 m00:002,12,1 (00:00)2,1 (00:00)0,0 l/m²80%1006,00,0 km/h (0 Bft) O-NO0,0 km/h (0 Bft) O-NO (00:00)
Ravensburg-Wernsreute511 m00:00-0,8-0,8 (23:20)-0,8 (13:10)0,0 l/m²92%1008,74,8 km/h (1 Bft) N25,7 km/h (4 Bft) SW (12:45)
Reichenbach an der Fils343 m00:002,72,8 (00:00)2,8 (00:00)0,0 l/m²83%1007,30,0 km/h (0 Bft) O0,0 km/h (0 Bft) O (00:00)
Reinstetten559 m00:000,50,7 (00:00)0,7 (00:00)0,0 l/m²87%1006,84,8 km/h (1 Bft) S-SW4,8 km/h (1 Bft) S-SW (00:00)
Riedlingen530 m00:00-0,10,0 (00:00)0,0 (00:00)0,0 l/m²91%1006,31,6 km/h (1 Bft) S-SW1,6 km/h (1 Bft) S-SW (00:00)
Schemmerhofen520 m00:000,60,6 (00:00)0,6 (00:00)0,0 l/m²91%1006,03,2 km/h (1 Bft) SW3,2 km/h (1 Bft) SW (00:00)
Silbertal im Montafon (AT)884 m00:00-2,3-2,3 (00:00)-2,3 (00:00)0,0 l/m²93%1007,90,0 km/h (0 Bft) O0,0 km/h (0 Bft) O (00:00)
Tuttlingen, Möhringer-Vorstadt711 m00:00-1,8-1,8 (06:30)-1,8 (12:55)0,0 l/m²95%1006,30,0 km/h (0 Bft) S-SO17,7 km/h (3 Bft) W-SW (12:15)
Ummendorf547 m00:000,00,0 (00:00)0,0 (00:00)0,0 l/m²84%1007,46,4 km/h (2 Bft) O-SO6,4 km/h (2 Bft) O-SO (00:00)
Ummendorf-Fischbach558 m00:00-0,2-0,2 (00:00)-0,2 (00:00)0,0 l/m²84%1007,40,0 km/h (0 Bft) SO0,0 km/h (0 Bft) SO (00:00)
Waldburg707 m00:000,50,5 (00:00)0,5 (00:00)0,0 l/m²90%1005,80,0 km/h (0 Bft) N0,0 km/h (0 Bft) N (00:00)
Wangen, Hans-Schnitzer-Weg569 m00:000,70,7 (00:00)0,7 (00:00)0,0 l/m²72%1005,10,0 km/h (0 Bft) S0,0 km/h (0 Bft) S (00:00)
Weingarten500 m00:001,91,9 (00:00)1,9 (00:00)0,0 l/m²88%1005,93,2 km/h (1 Bft) SO3,2 km/h (1 Bft) SO (00:00)



Hochwinter
Statistisch gesehen ist der Januar der kälteste und der Februar der schneereichste Monat. In den letzten 40 Jahren schwankten die Temperaturen im Januar an der Wetterzentrale in Bad Schussenried zwischen minus 26,2°C, gemessen am 09.01.85 und plus 15,6°C (am 12.01.93) und im Februar zwischen minus 19,5°C am 27.02.86 und plus 19,6°C am 24.02.08. Die höchste Schneehöhe in den Niederungen unterhalb von 700 Metern verzeichneten die Wetterbeobachter mit 50 bis 80 Zentimetern am 20. Februar 1978. Vielen dürfte wohl noch der Februar 1990, der bis dato mildeste seit Beginn der Wetteraufzeichnungen in Erinnerung sein, als die beiden Orkantiefs "Vivien" und "Wiebke" in Mittel- und Westeuropa mehr Sturmholzschaden verursachten als alle Stürme der letzten 100 Jahren insgesamt. Unvergessen ist gewiss auch der Februar 1963, in welchem der Bodensee letztmals auf seiner gesamten Länge und Breite zufror. Den Höhepunkt der damaligen "Seegfrörne" bildete eine Eisprozession, bei der die Statue des Heiligen Johannes nach 133 Jahren wieder über den Bodensee von Hagnau ins schweizerische Münsterlingen getragen wurde. Fraglich, ob sie aufgrund des Klimawandels jemals wieder nach Deutschland zurückkehren wird.

zurück zum Verzeichnis
 
 statistiken
| messwerte
| wetterbeobachtungspunkte
 
wetterstationen
wetterstationen
- derzeit 78 Stationen
wetterstationen
wetterstationen
- kartographische Darstellung
niederschlagsdatenbank
niederschlagsstationen
- derzeit 111 Stationen
niederschlagsdatenbank
niederschlagsstationen
- kartographische Darstellung
webcams
interessante webcams
im Vorhersagegebiet
 
Mi. 7.30 Uhr - Do. 7.30 Uhr (MEZ)
1.Bad Waldsee-Haisterkirch
Zur Spitzenkapelle 1
0,0 l/m²
 
  treffpunkt & service
Pegel Konstanz www.bodensee.net

zugriffe:
insgesamt: 44.983.505
aktueller monat: 162.998
heute: 9
momentan online: 5
 
 
monatshöchstwert: 653.625
vorheriger monat: 400.654
gestern: 13.337
tageshöchstwert: 51.297
 
wetterwarte süd
 
konradstraße 3
info@wetterwarte-sued.com
roland roth
 
88427 bad schussenried